Main page
METAR-TAF:

METAR-TAF

Airports :

Northway Airport

Northway, Alaska, United States

latitude: 62-57-40N, longitude: 141-55-44W, elevation: 523 m

Current weather observation

The report was made 1 hour and 3 minutes ago, at 10:53 UTC
Wind 4 kt from the East
Temperature -4°C
Humidity 58%
Pressure 1025 hPa
Visibility: 16.1 km
Clear sky

METAR: PAOR 161053Z 09004KT 10SM CLR M04/M11 A3027 RMK AO2 SLP280 T10441106 $

Time: 03:56 (11:56 UTC)

Forecast

The report was made 6 hours and 35 minutes ago, at 05:21 UTC
Forecast valid from 16 at 06 UTC to 17 at 06 UTC
Wind 4 kt from variable directions
Visibility: 10 km
Clear sky
From 16 at 2100 UTC
Wind 4 kt from the South
Visibility: 10 km
Clear sky

TAF: PAOR 160521Z 1606/1706 VRB04KT P6SM SKC FM162100 18004KT P6SM SKC

Weather observations and forecasts of more than 4000 airports (METAR and TAF reports).

The available stations are represented by yellow and red dots on the map.

Hover mouse over dot to see the name of the station.

Then click to see weather observations and forecasts.

To change the map : click on the green buttons with a black cross to zoom in, on the green button with a dash to zoom out, or on the green arrows for adjacent maps.


METAR-TAF: